Time;durP1;ratioP1;P1;durP2;ratioP2;P2;SDS_P1;SDS_P2;PMS_P1;PMS_P2;Temp;Humidity;BMP_temperature;BMP_pressure;BME280_temperature;BME280_humidity;BME280_pressure;Samples;Min_cycle;Max_cycle;Signal;HPM_P1;HPM_P2
2023/08/29 00:00:57;;;;;;;29.60;23.30;;;;;;;30.96;56.32;98682.79;105321;1257;61411;-74
2023/08/29 00:03:27;;;;;;;30.20;23.20;;;;;;;30.78;56.83;98682.73;105674;1259;72746;-73
2023/08/29 00:06:01;;;;;;;27.90;24.60;;;;;;;30.76;56.99;98685.52;105709;1262;67837;-74
2023/08/29 00:08:28;;;;;;;29.30;25.30;;;;;;;30.62;57.48;98684.46;105699;1258;72633;-75
2023/08/29 00:10:56;;;;;;;28.20;24.20;;;;;;;30.52;58.14;98683.20;105701;1257;61908;-75
2023/08/29 00:13:23;;;;;;;27.90;25.00;;;;;;;30.28;59.22;98678.48;105706;1258;61363;-76
2023/08/29 00:15:51;;;;;;;26.10;23.40;;;;;;;30.08;60.48;98676.48;105674;1261;74559;-74
2023/08/29 00:18:21;;;;;;;29.60;24.60;;;;;;;29.99;60.99;98677.98;105705;1260;68552;-76
2023/08/29 00:20:51;;;;;;;30.90;24.90;;;;;;;30.06;60.92;98681.80;105652;1260;72353;-77
2023/08/29 00:23:18;;;;;;;25.70;22.70;;;;;;;29.88;62.02;98676.94;105699;1257;61673;-75
2023/08/29 00:25:46;;;;;;;32.60;25.30;;;;;;;29.78;63.07;98672.66;105877;1262;61301;-75
2023/08/29 00:28:13;;;;;;;26.70;24.00;;;;;;;29.83;62.64;98673.34;105731;1262;74593;-76
2023/08/29 00:30:40;;;;;;;28.50;24.00;;;;;;;29.72;63.64;98675.52;105649;1260;68396;-75
2023/08/29 00:33:11;;;;;;;27.80;24.70;;;;;;;29.72;63.81;98673.88;105689;1260;71091;-76
2023/08/29 00:35:38;;;;;;;28.10;24.40;;;;;;;29.74;63.67;98674.42;105688;1260;61542;-75
2023/08/29 00:38:05;;;;;;;32.10;25.90;;;;;;;29.59;64.53;98673.45;105686;1257;61342;-74
2023/08/29 00:40:33;;;;;;;30.80;26.90;;;;;;;29.61;64.33;98674.14;105673;1262;74337;-76
2023/08/29 00:43:00;;;;;;;33.60;26.00;;;;;;;29.59;64.24;98671.64;105677;1261;68861;-74
2023/08/29 00:45:29;;;;;;;;;;;;;;;29.82;62.74;98673.27;105682;1257;70958;-77
2023/08/29 00:47:56;;;;;;;42.30;35.10;;;;;;;29.80;62.41;98669.09;105696;1257;62415;-75
2023/08/29 00:50:24;;;;;;;40.80;35.10;;;;;;;29.65;62.83;98675.80;105375;1259;61346;-74
2023/08/29 00:52:50;;;;;;;40.30;36.00;;;;;;;29.57;63.17;98672.04;105405;1257;74405;-75
2023/08/29 00:55:17;;;;;;;45.20;39.70;;;;;;;29.38;64.10;98673.31;105696;1260;68446;-75
2023/08/29 00:57:44;;;;;;;39.50;34.50;;;;;;;29.35;64.00;98672.45;105430;1257;72349;-75
2023/08/29 01:00:12;;;;;;;40.90;29.80;;;;;;;29.29;63.88;98669.89;105630;1260;61674;-75
2023/08/29 01:02:40;;;;;;;;;;;;;;;29.10;64.43;98668.13;105702;1260;61258;-76
2023/08/29 01:05:07;;;;;;;34.20;29.80;;;;;;;28.93;65.19;98666.48;105732;1262;74359;-75
2023/08/29 01:07:34;;;;;;;41.00;31.90;;;;;;;28.74;65.99;98667.01;105689;1259;68738;-77
2023/08/29 01:10:01;;;;;;;35.30;31.30;;;;;;;28.63;66.34;98666.88;105478;1260;72479;-75
2023/08/29 01:12:58;;;;;;;34.90;31.00;;;;;;;28.49;66.86;98662.60;105425;1263;61689;-75
2023/08/29 01:15:27;;;;;;;35.80;31.30;;;;;;;28.41;67.85;98662.46;105091;1259;61164;-79
2023/08/29 01:18:00;;;;;;;37.10;31.00;;;;;;;28.31;68.59;98661.35;105372;1258;73185;-75
2023/08/29 01:20:29;;;;;;;38.60;30.10;;;;;;;28.30;68.62;98657.00;105697;1260;68680;-75
2023/08/29 01:23:08;;;;;;;38.10;31.60;;;;;;;28.27;69.23;98655.19;105709;1260;72359;-76
2023/08/29 01:25:47;;;;;;;42.20;33.40;;;;;;;28.18;70.20;98653.70;105651;1262;61229;-75
2023/08/29 01:28:14;;;;;;;40.10;34.30;;;;;;;28.22;70.27;98651.34;105431;1263;61195;-74
2023/08/29 01:30:41;;;;;;;37.70;33.20;;;;;;;28.21;70.51;98651.73;105680;1262;74231;-74
2023/08/29 01:33:09;;;;;;;40.30;33.70;;;;;;;28.21;70.80;98650.48;105415;1260;67774;-75
2023/08/29 01:35:46;;;;;;;39.50;32.70;;;;;;;28.29;70.53;98648.02;105686;1263;72642;-74
2023/08/29 01:38:17;;;;;;;38.80;33.30;;;;;;;28.25;70.94;98652.27;105419;1260;61894;-75
2023/08/29 01:40:44;;;;;;;40.50;34.90;;;;;;;28.22;71.38;98655.59;105378;1260;61340;-75
2023/08/29 01:43:11;;;;;;;39.10;32.40;;;;;;;28.28;70.75;98657.25;105330;1265;74351;-76
2023/08/29 01:45:38;;;;;;;40.40;32.80;;;;;;;28.32;69.82;98658.59;105681;1260;68307;-75
2023/08/29 01:48:05;;;;;;;45.00;34.00;;;;;;;28.32;69.67;98659.05;105472;1265;72394;-75
2023/08/29 01:50:33;;;;;;;49.20;37.70;;;;;;;28.32;70.06;98660.88;105685;1260;61845;-77
2023/08/29 01:53:00;;;;;;;45.80;37.00;;;;;;;28.32;70.64;98659.85;105431;1265;61415;-76
2023/08/29 01:55:27;;;;;;;38.10;34.00;;;;;;;28.30;71.04;98666.86;105443;1263;74463;-74
2023/08/29 01:57:54;;;;;;;44.10;36.40;;;;;;;28.30;70.23;98665.05;105762;1260;68679;-74
2023/08/29 02:00:24;;;;;;;47.90;37.10;;;;;;;28.31;70.85;98663.39;105577;1262;72461;-74
2023/08/29 02:02:51;;;;;;;44.00;37.10;;;;;;;28.41;70.19;98662.69;105401;1263;61724;-76
2023/08/29 02:05:17;;;;;;;44.60;37.80;;;;;;;28.45;69.44;98661.66;105715;1262;61356;-76
2023/08/29 02:07:44;;;;;;;55.50;40.30;;;;;;;28.34;70.55;98663.08;105366;1265;74552;-75
2023/08/29 02:10:11;;;;;;;46.00;39.50;;;;;;;28.36;71.25;98663.86;105459;1263;68618;-76
2023/08/29 02:12:38;;;;;;;53.10;41.90;;;;;;;28.40;70.84;98668.37;105659;1259;72331;-76
2023/08/29 02:15:06;;;;;;;45.60;39.30;;;;;;;28.38;70.83;98671.52;105639;1260;61879;-74
2023/08/29 02:17:33;;;;;;;;;;;;;;;28.19;71.73;98672.21;105545;1260;61353;-74
2023/08/29 02:20:00;;;;;;;61.70;44.60;;;;;;;28.12;72.03;98671.12;105527;1262;74916;-74
2023/08/29 02:22:26;;;;;;;56.50;41.80;;;;;;;27.95;72.70;98670.38;105674;1258;68351;-74
2023/08/29 02:24:53;;;;;;;47.70;41.60;;;;;;;27.90;72.62;98663.67;105704;1262;72522;-75
2023/08/29 02:27:20;;;;;;;51.70;39.20;;;;;;;27.88;73.03;98664.77;105407;1259;62010;-76
2023/08/29 02:29:47;;;;;;;56.70;46.30;;;;;;;27.79;73.08;98671.20;105600;1262;61356;-75
2023/08/29 02:32:14;;;;;;;54.70;44.20;;;;;;;27.85;73.08;98676.98;105708;1262;74610;-76
2023/08/29 02:34:41;;;;;;;56.40;45.60;;;;;;;27.81;73.38;98677.04;105712;1262;68582;-75
2023/08/29 02:37:08;;;;;;;48.80;41.70;;;;;;;27.64;73.97;98678.48;105664;1262;72657;-75
2023/08/29 02:39:35;;;;;;;52.40;41.90;;;;;;;27.60;73.92;98675.95;105558;1262;61240;-75
2023/08/29 02:42:03;;;;;;;58.20;39.90;;;;;;;27.53;74.41;98675.85;105692;1260;61279;-75
2023/08/29 02:44:30;;;;;;;51.00;40.60;;;;;;;27.59;75.33;98676.90;105662;1262;74662;-75
2023/08/29 02:46:56;;;;;;;58.30;42.20;;;;;;;27.63;76.84;98676.10;105518;1257;68333;-76
2023/08/29 02:49:23;;;;;;;57.70;40.20;;;;;;;27.75;77.26;98674.90;105708;1262;72262;-75
2023/08/29 02:51:50;;;;;;;55.80;40.90;;;;;;;27.93;76.24;98677.33;105653;1259;61671;-75
2023/08/29 02:54:18;;;;;;;55.60;42.30;;;;;;;27.97;77.12;98681.02;105703;1260;61344;-75
2023/08/29 02:56:44;;;;;;;60.70;42.90;;;;;;;28.17;76.74;98688.45;105395;1263;74339;-74
2023/08/29 02:59:11;;;;;;;55.20;44.60;;;;;;;28.33;75.67;98684.37;105705;1257;68971;-75
2023/08/29 03:01:38;;;;;;;54.30;42.90;;;;;;;28.49;73.72;98688.98;105659;1257;72424;-76
2023/08/29 03:04:05;;;;;;;58.60;44.60;;;;;;;28.51;73.82;98691.89;105715;1261;61260;-75
2023/08/29 03:06:31;;;;;;;60.00;43.70;;;;;;;28.58;73.18;98692.27;105715;1263;61282;-75
2023/08/29 03:08:58;;;;;;;70.50;49.60;;;;;;;28.63;72.41;98689.73;105392;1263;74516;-76
2023/08/29 03:11:26;;;;;;;59.90;47.80;;;;;;;28.39;73.58;98694.47;105704;1259;68692;-76
2023/08/29 03:13:53;;;;;;;58.80;44.90;;;;;;;28.34;73.82;98688.86;105394;1260;72441;-75
2023/08/29 03:16:21;;;;;;;66.80;47.10;;;;;;;28.43;73.26;98694.63;105710;1257;61896;-76
2023/08/29 03:18:47;;;;;;;58.80;43.20;;;;;;;28.53;73.37;98690.31;105528;1262;61313;-74
2023/08/29 03:21:14;;;;;;;64.90;46.90;;;;;;;28.61;73.48;98691.55;105379;1263;74599;-76
2023/08/29 03:23:41;;;;;;;72.70;48.10;;;;;;;28.72;72.83;98686.66;105699;1263;67121;-74
2023/08/29 03:26:09;;;;;;;78.90;47.30;;;;;;;28.98;70.92;98683.77;105358;1263;72437;-75
2023/08/29 03:28:38;;;;;;;71.20;47.60;;;;;;;29.07;69.59;98683.84;105503;1260;61612;-75
2023/08/29 03:31:08;;;;;;;80.40;49.10;;;;;;;28.87;70.69;98686.08;105762;1261;61228;-76
2023/08/29 03:33:36;;;;;;;70.70;43.80;;;;;;;28.98;70.22;98684.71;105713;1260;74580;-76
2023/08/29 03:36:03;;;;;;;92.10;42.90;;;;;;;28.92;70.07;98682.92;105734;1260;68417;-78
2023/08/29 03:38:30;;;;;;;74.80;38.20;;;;;;;28.92;69.65;98683.38;105339;1259;72495;-74
2023/08/29 03:40:57;;;;;;;51.40;36.80;;;;;;;28.95;68.67;98683.14;105695;1262;62332;-76
2023/08/29 03:43:27;;;;;;;56.90;34.00;;;;;;;28.88;67.84;98685.98;105512;1263;61359;-76
2023/08/29 03:45:58;;;;;;;55.80;35.40;;;;;;;28.74;68.02;98690.28;105712;1262;75128;-75
2023/08/29 03:48:25;;;;;;;62.20;40.30;;;;;;;28.72;68.99;98696.83;105791;1262;68387;-77
2023/08/29 03:50:56;;;;;;;55.50;36.40;;;;;;;29.01;68.42;98696.79;107361;1260;72369;-76
2023/08/29 03:53:22;;;;;;;60.10;36.50;;;;;;;29.24;65.98;98698.63;109010;1257;60369;-76
2023/08/29 03:55:50;;;;;;;62.20;36.40;;;;;;;28.96;66.67;98698.20;109227;1257;58943;-76
2023/08/29 03:58:16;;;;;;;51.80;32.50;;;;;;;28.92;66.34;98703.42;107931;1262;73077;-78
2023/08/29 04:00:44;;;;;;;43.30;30.00;;;;;;;28.93;65.68;98702.95;105378;1257;69182;-80
2023/08/29 04:03:11;;;;;;;38.40;28.60;;;;;;;29.09;64.54;98700.88;105703;1260;71561;-79
2023/08/29 04:05:38;;;;;;;38.40;28.40;;;;;;;29.31;63.61;98702.71;105751;1262;61743;-77
2023/08/29 04:08:06;;;;;;;44.90;28.10;;;;;;;29.51;62.82;98705.55;105341;1258;61321;-76
2023/08/29 04:10:38;;;;;;;40.60;29.20;;;;;;;29.77;62.19;98704.10;105710;1263;74445;-75
2023/08/29 04:13:06;;;;;;;55.70;32.00;;;;;;;30.01;61.85;98706.17;105710;1261;68647;-76
2023/08/29 04:15:33;;;;;;;49.40;35.00;;;;;;;30.35;61.39;98707.00;105747;1263;72291;-73
2023/08/29 04:18:01;;;;;;;57.90;35.10;;;;;;;30.61;60.28;98712.23;105711;1263;61663;-74
2023/08/29 04:20:29;;;;;;;57.30;37.80;;;;;;;30.82;59.37;98717.19;105735;1262;61580;-75
2023/08/29 04:22:57;;;;;;;49.20;34.40;;;;;;;31.02;58.61;98719.08;105366;1260;74328;-76
2023/08/29 04:25:26;;;;;;;46.20;34.00;;;;;;;31.16;58.33;98721.05;105675;1263;68034;-75
2023/08/29 04:27:53;;;;;;;44.50;33.10;;;;;;;31.31;57.70;98716.94;105702;1262;70840;-77
2023/08/29 04:30:20;;;;;;;40.20;30.60;;;;;;;31.33;57.38;98716.27;105695;1263;61824;-76
2023/08/29 04:32:50;;;;;;;40.40;31.10;;;;;;;31.42;56.58;98714.84;105662;1263;61225;-73
2023/08/29 04:35:18;;;;;;;35.00;29.60;;;;;;;31.43;56.56;98718.65;105723;1262;74389;-76
2023/08/29 04:37:51;;;;;;;44.20;30.60;;;;;;;31.76;55.68;98717.42;105700;1262;61352;-75
2023/08/29 04:40:18;;;;;;;37.70;28.30;;;;;;;32.19;54.02;98716.91;105623;1262;62491;-74
2023/08/29 04:42:45;;;;;;;42.10;29.90;;;;;;;32.38;53.18;98721.86;105722;1263;61247;-75
2023/08/29 04:45:13;;;;;;;34.60;27.80;;;;;;;32.51;52.63;98725.39;105684;1262;61253;-77
2023/08/29 04:47:40;;;;;;;38.20;28.20;;;;;;;32.61;52.29;98724.76;105681;1263;65895;-75
2023/08/29 04:50:07;;;;;;;34.10;27.00;;;;;;;32.86;51.30;98729.16;105332;1263;61282;-76
2023/08/29 04:52:35;;;;;;;40.00;31.00;;;;;;;32.91;50.93;98735.02;105306;1268;63964;-77
2023/08/29 04:55:02;;;;;;;64.30;40.80;;;;;;;33.16;50.50;98733.95;105669;1260;62280;-76
2023/08/29 04:57:29;;;;;;;54.50;37.20;;;;;;;33.71;48.85;98735.40;105377;1264;61356;-77
2023/08/29 04:59:56;;;;;;;52.30;34.80;;;;;;;34.00;48.13;98735.42;105335;1263;65959;-78
2023/08/29 05:02:23;;;;;;;35.50;27.40;;;;;;;34.18;47.32;98731.94;105349;1263;61351;-75
2023/08/29 05:04:52;;;;;;;34.70;27.20;;;;;;;34.20;47.27;98730.36;105678;1257;63985;-77
2023/08/29 05:07:19;;;;;;;28.50;25.40;;;;;;;34.07;47.80;98726.92;105670;1258;61353;-76
2023/08/29 05:09:46;;;;;;;25.70;23.00;;;;;;;34.12;47.78;98725.95;105640;1262;61168;-75
2023/08/29 05:12:13;;;;;;;29.40;25.50;;;;;;;34.25;47.27;98728.02;105681;1263;64531;-75
2023/08/29 05:14:40;;;;;;;32.30;26.80;;;;;;;34.51;46.82;98729.96;105402;1258;61350;-76
2023/08/29 05:17:10;;;;;;;38.90;31.10;;;;;;;34.64;46.33;98728.95;105359;1263;63984;-73
2023/08/29 05:19:37;;;;;;;48.30;33.90;;;;;;;34.53;46.46;98724.41;105692;1262;62272;-76
2023/08/29 05:22:04;;;;;;;59.50;42.30;;;;;;;34.42;46.93;98723.65;105741;1258;61270;-76
2023/08/29 05:24:31;;;;;;;77.10;53.00;;;;;;;34.15;47.64;98720.86;105456;1263;65745;-73
2023/08/29 05:26:57;;;;;;;75.40;53.30;;;;;;;33.68;49.00;98718.07;105737;1258;61343;-75
2023/08/29 05:29:24;;;;;;;76.00;53.90;;;;;;;33.15;50.68;98714.59;105828;1262;63741;-76
2023/08/29 05:31:51;;;;;;;75.70;51.70;;;;;;;32.84;52.64;98711.02;105820;1263;61190;-75
2023/08/29 05:34:18;;;;;;;65.30;47.60;;;;;;;32.89;53.02;98710.53;105835;1263;61337;-77
2023/08/29 05:36:46;;;;;;;71.80;50.70;;;;;;;33.06;52.74;98712.05;105869;1257;64449;-76
2023/08/29 05:39:14;;;;;;;91.90;57.10;;;;;;;33.19;52.65;98719.13;105845;1271;61139;-77
2023/08/29 05:41:40;;;;;;;79.00;52.20;;;;;;;33.41;52.22;98719.89;105854;1263;63946;-78
2023/08/29 05:44:07;;;;;;;70.00;45.40;;;;;;;33.56;52.02;98721.42;105847;1260;61105;-74
2023/08/29 05:46:34;;;;;;;50.10;38.00;;;;;;;33.73;51.33;98721.39;105788;1263;61201;-76
2023/08/29 05:49:01;;;;;;;48.50;35.90;;;;;;;33.92;50.85;98729.86;105602;1267;66147;-76
2023/08/29 05:51:28;;;;;;;44.00;31.70;;;;;;;34.23;50.20;98734.61;105858;1261;61250;-76
2023/08/29 05:53:55;;;;;;;40.80;31.20;;;;;;;34.24;49.46;98730.91;105795;1263;63715;-77
2023/08/29 05:56:21;;;;;;;31.60;26.20;;;;;;;34.14;50.09;98731.23;105802;1257;62782;-75
2023/08/29 05:58:48;;;;;;;31.30;25.50;;;;;;;34.41;49.14;98734.08;105538;1263;61216;-77
2023/08/29 06:01:15;;;;;;;37.50;28.80;;;;;;;34.70;48.27;98737.14;105823;1262;64566;-75
2023/08/29 06:03:42;;;;;;;29.50;24.60;;;;;;;34.91;47.44;98743.86;105889;1262;61359;-77
2023/08/29 06:06:09;;;;;;;24.40;21.80;;;;;;;35.07;47.08;98745.10;105548;1257;63946;-75
2023/08/29 06:08:36;;;;;;;32.00;23.70;;;;;;;35.01;46.96;98745.02;105538;1257;61267;-77
2023/08/29 06:11:03;;;;;;;25.20;22.50;;;;;;;35.45;46.04;98742.23;105720;1257;61583;-76
2023/08/29 06:13:30;;;;;;;31.30;22.50;;;;;;;35.81;44.95;98743.38;105809;1263;66053;-77
2023/08/29 06:15:57;;;;;;;25.10;22.40;;;;;;;36.13;44.16;98738.73;105789;1265;61392;-76
2023/08/29 06:18:24;;;;;;;23.20;20.80;;;;;;;36.60;43.58;98742.33;105812;1257;63768;-75
2023/08/29 06:20:50;;;;;;;23.00;19.50;;;;;;;36.94;42.77;98744.56;105770;1263;61215;-73
2023/08/29 06:23:18;;;;;;;20.70;18.60;;;;;;;37.06;42.27;98749.53;105510;1258;61275;-76
2023/08/29 06:25:44;;;;;;;24.10;19.40;;;;;;;36.98;42.29;98748.73;105797;1257;64520;-78
2023/08/29 06:28:11;;;;;;;30.00;20.70;;;;;;;37.05;42.21;98749.89;105749;1258;61348;-78
2023/08/29 06:30:38;;;;;;;25.60;19.60;;;;;;;36.90;42.42;98749.57;105745;1263;63960;-77
2023/08/29 06:33:06;;;;;;;27.90;20.00;;;;;;;36.88;42.67;98750.92;105753;1264;61404;-78
2023/08/29 06:35:38;;;;;;;23.90;18.90;;;;;;;37.37;41.86;98757.52;105619;1261;61228;-76
2023/08/29 06:38:05;;;;;;;19.10;17.30;;;;;;;37.44;41.59;98758.00;105860;1262;65814;-77
2023/08/29 06:40:32;;;;;;;19.60;17.80;;;;;;;37.56;41.46;98759.09;105820;1257;61250;-77
2023/08/29 06:42:59;;;;;;;20.10;18.00;;;;;;;37.71;41.44;98755.73;105560;1258;64332;-78
2023/08/29 06:45:26;;;;;;;20.50;18.30;;;;;;;38.15;40.86;98756.30;105812;1261;61280;-78
2023/08/29 06:47:53;;;;;;;21.40;16.60;;;;;;;38.48;40.05;98761.08;105806;1257;61369;-79
2023/08/29 06:50:20;;;;;;;28.30;17.70;;;;;;;38.71;39.58;98758.62;105727;1262;65767;-79
2023/08/29 06:52:47;;;;;;;20.80;17.00;;;;;;;38.69;39.50;98755.33;105772;1257;61332;-80
2023/08/29 06:55:14;;;;;;;20.30;18.00;;;;;;;38.29;40.39;98756.70;105772;1262;62607;-78
2023/08/29 06:57:41;;;;;;;17.30;15.40;;;;;;;38.65;40.10;98758.94;105574;1257;61304;-79
2023/08/29 07:00:10;;;;;;;20.40;16.60;;;;;;;39.01;39.35;98758.01;105771;1257;61247;-79
2023/08/29 07:02:37;;;;;;;17.20;14.70;;;;;;;39.09;38.65;98760.80;105569;1261;66012;-77
2023/08/29 07:05:04;;;;;;;18.80;14.60;;;;;;;39.14;38.33;98760.51;105857;1258;61381;-77
2023/08/29 07:07:31;;;;;;;19.90;16.00;;;;;;;39.12;38.25;98756.67;105484;1257;65646;-78
2023/08/29 07:09:58;;;;;;;20.50;14.80;;;;;;;39.21;38.31;98756.65;105723;1257;61361;-80
2023/08/29 07:12:25;;;;;;;17.90;14.90;;;;;;;39.71;37.98;98759.84;105702;1260;61366;-78
2023/08/29 07:14:52;;;;;;;45.50;17.30;;;;;;;39.84;36.73;98758.61;105651;1262;65859;-80
2023/08/29 07:17:19;;;;;;;23.90;14.90;;;;;;;39.86;36.21;98757.45;105696;1258;61362;-75
2023/08/29 07:19:46;;;;;;;18.50;13.60;;;;;;;39.74;35.76;98754.85;105690;1262;63808;-79
2023/08/29 07:22:13;;;;;;;16.90;13.20;;;;;;;39.55;35.94;98752.52;105664;1257;62449;-75
2023/08/29 07:24:43;;;;;;;22.50;13.40;;;;;;;39.67;35.66;98755.33;105760;1257;61240;-74
2023/08/29 07:27:10;;;;;;;17.10;15.30;;;;;;;39.87;35.47;98755.88;105730;1263;65711;-74
2023/08/29 07:29:37;;;;;;;16.40;14.00;;;;;;;40.14;35.06;98763.77;105304;1258;62339;-74
2023/08/29 07:32:05;;;;;;;21.10;15.20;;;;;;;40.15;34.87;98762.67;105691;1262;64092;-74
2023/08/29 07:34:31;;;;;;;;;;;;;;;40.37;34.62;98764.27;105659;1263;61374;-76
2023/08/29 07:36:58;;;;;;;20.00;14.40;;;;;;;40.75;33.94;98762.15;105629;1258;61349;-70
2023/08/29 07:39:25;;;;;;;18.20;14.30;;;;;;;40.60;33.58;98762.74;105675;1262;66008;-72
2023/08/29 07:41:52;;;;;;;19.40;14.50;;;;;;;40.45;33.77;98760.22;105704;1261;61260;-74
2023/08/29 07:44:18;;;;;;;20.70;14.50;;;;;;;40.44;33.96;98759.68;105342;1263;64129;-75
2023/08/29 07:46:45;;;;;;;14.90;13.00;;;;;;;40.75;33.88;98753.47;105343;1257;61416;-76
2023/08/29 07:49:32;;;;;;;22.10;14.10;;;;;;;40.92;33.48;98758.22;105677;1258;61254;-75
2023/08/29 07:51:59;;;;;;;17.90;14.60;;;;;;;41.13;33.12;98763.66;105627;1261;65881;-75
2023/08/29 07:54:26;;;;;;;22.00;14.80;;;;;;;40.96;32.68;98762.40;105668;1258;61349;-74
2023/08/29 07:56:53;;;;;;;17.40;14.60;;;;;;;40.74;32.84;98765.46;105681;1262;63844;-73
2023/08/29 07:59:20;;;;;;;16.60;14.90;;;;;;;40.62;33.10;98764.83;105685;1261;61252;-74
2023/08/29 08:01:48;;;;;;;23.40;16.20;;;;;;;40.50;33.33;98759.61;105667;1259;61266;-75
2023/08/29 08:04:15;;;;;;;17.50;14.70;;;;;;;40.32;33.76;98761.71;105700;1258;65806;-73
2023/08/29 08:06:42;;;;;;;22.00;15.30;;;;;;;40.13;34.10;98762.84;105265;1258;62141;-74
2023/08/29 08:09:09;;;;;;;47.60;17.40;;;;;;;40.24;34.21;98759.73;105766;1262;63979;-76
2023/08/29 08:11:35;;;;;;;24.30;14.10;;;;;;;40.25;34.48;98761.04;105664;1258;61275;-75
2023/08/29 08:14:03;;;;;;;93.60;18.90;;;;;;;40.86;32.74;98762.47;105700;1257;61319;-74
2023/08/29 08:16:30;;;;;;;20.00;14.00;;;;;;;40.33;33.08;98756.91;105647;1262;65817;-74
2023/08/29 08:18:56;;;;;;;21.90;13.90;;;;;;;40.05;33.46;98752.13;105668;1257;62400;-75
2023/08/29 08:21:23;;;;;;;43.80;17.00;;;;;;;39.92;33.88;98757.73;105670;1258;64170;-80
2023/08/29 08:23:50;;;;;;;15.20;13.70;;;;;;;40.23;33.17;98757.55;105699;1257;61399;-74
2023/08/29 08:26:17;;;;;;;22.20;14.50;;;;;;;40.36;32.87;98757.40;105717;1263;61265;-72
2023/08/29 08:28:44;;;;;;;25.30;15.10;;;;;;;40.13;33.04;98763.19;105694;1257;64590;-76
2023/08/29 08:31:11;;;;;;;22.10;14.00;;;;;;;40.45;32.69;98760.02;105419;1258;61279;-74
2023/08/29 08:33:40;;;;;;;19.40;13.90;;;;;;;40.51;32.60;98755.38;105666;1258;63706;-77
2023/08/29 08:36:07;;;;;;;13.90;12.30;;;;;;;40.43;32.59;98752.77;105741;1257;61241;-74
2023/08/29 08:38:34;;;;;;;;;;;;;;;40.59;32.14;98754.30;105757;1257;61299;-74
2023/08/29 08:41:01;;;;;;;15.50;13.40;;;;;;;40.60;31.96;98754.38;105336;1262;333000;-73
2023/08/29 08:43:29;;;;;;;18.10;13.10;;;;;;;40.81;31.99;98751.66;105658;1257;61372;-81
2023/08/29 08:45:56;;;;;;;19.10;14.20;;;;;;;40.95;31.80;98752.29;105669;1258;63726;-74
2023/08/29 08:48:23;;;;;;;15.50;13.40;;;;;;;41.36;31.76;98754.20;105368;1260;61314;-74
2023/08/29 08:50:50;;;;;;;22.30;14.00;;;;;;;41.73;31.06;98750.58;105408;1261;63011;-76
2023/08/29 08:53:22;;;;;;;13.60;12.10;;;;;;;41.77;30.92;98748.91;105570;1257;64642;-74
2023/08/29 08:55:49;;;;;;;15.30;13.40;;;;;;;41.86;30.39;98752.19;105665;1257;61275;-73
2023/08/29 08:58:17;;;;;;;21.30;13.80;;;;;;;41.78;30.30;98750.21;105696;1257;63971;-74
2023/08/29 09:00:44;;;;;;;16.50;13.10;;;;;;;41.91;30.52;98752.07;105477;1264;61305;-75
2023/08/29 09:03:14;;;;;;;;;;;;;;;42.06;30.43;98750.84;105723;1257;61267;-78
2023/08/29 09:05:41;;;;;;;22.70;12.40;;;;;;;42.14;29.76;98750.29;105690;1262;65817;-74
2023/08/29 09:08:08;;;;;;;18.60;12.40;;;;;;;42.21;29.54;98746.76;105777;1258;61337;-74
2023/08/29 09:10:39;;;;;;;18.00;12.20;;;;;;;42.25;29.35;98749.02;105715;1262;62656;-75
2023/08/29 09:13:06;;;;;;;14.60;11.10;;;;;;;42.08;29.05;98749.98;105671;1258;61245;-74
2023/08/29 09:15:34;;;;;;;18.60;11.80;;;;;;;41.84;29.29;98744.31;105360;1258;61292;-78
2023/08/29 09:18:01;;;;;;;13.50;11.00;;;;;;;41.79;29.52;98745.47;105390;1263;65936;-74
2023/08/29 09:20:29;;;;;;;17.10;10.60;;;;;;;41.89;28.96;98746.67;105687;1257;61325;-76
2023/08/29 09:22:56;;;;;;;20.90;11.60;;;;;;;42.02;28.51;98743.25;105706;1257;63916;-75
2023/08/29 09:25:25;;;;;;;18.20;11.00;;;;;;;42.26;28.25;98745.40;105399;1257;61285;-76
2023/08/29 09:27:53;;;;;;;14.20;10.30;;;;;;;42.62;27.18;98748.27;105512;1257;61265;-75
2023/08/29 09:30:19;;;;;;;22.90;9.60;;;;;;;42.63;26.85;98745.41;105709;1262;65973;-76
2023/08/29 09:32:48;;;;;;;12.60;10.10;;;;;;;42.30;26.89;98744.80;105724;1258;61328;-74
2023/08/29 09:35:16;;;;;;;12.60;10.20;;;;;;;42.54;26.68;98747.90;105729;1257;63836;-74
2023/08/29 09:37:50;;;;;;;16.80;9.00;;;;;;;42.35;25.87;98746.45;105729;1262;61229;-76
2023/08/29 09:40:17;;;;;;;12.70;9.20;;;;;;;42.24;24.81;98745.73;105710;1257;61967;-74
2023/08/29 09:43:04;;;;;;;15.90;9.00;;;;;;;42.64;25.13;98747.67;105705;1258;64542;-74
2023/08/29 09:45:31;;;;;;;17.30;9.40;;;;;;;42.96;25.25;98752.82;105681;1262;61289;-75
2023/08/29 09:48:02;;;;;;;11.80;8.40;;;;;;;42.68;24.84;98750.14;105272;1265;62577;-73
2023/08/29 09:50:30;;;;;;;20.00;10.50;;;;;;;42.14;24.99;98746.27;105710;1258;61255;-74
2023/08/29 09:52:56;;;;;;;19.10;8.90;;;;;;;42.25;25.43;98744.92;105336;1258;61301;-75
2023/08/29 09:55:24;;;;;;;17.10;8.20;;;;;;;42.09;25.45;98746.84;105712;1262;66909;-74
2023/08/29 09:57:50;;;;;;;;;;;;;;;42.04;25.29;98745.48;105856;1257;61276;-74
2023/08/29 10:00:20;;;;;;;14.00;10.30;;;;;;;41.68;27.11;98744.52;109053;1257;62447;-74
2023/08/29 10:02:47;;;;;;;25.20;10.00;;;;;;;41.98;26.78;98742.91;108531;1257;58798;-73
2023/08/29 10:05:14;;;;;;;14.50;9.10;;;;;;;42.14;26.21;98735.42;108733;1259;58893;-76
2023/08/29 10:07:46;;;;;;;17.20;10.50;;;;;;;42.28;26.15;98735.48;105881;1259;64947;-76
2023/08/29 10:10:13;;;;;;;16.60;10.90;;;;;;;42.48;26.17;98735.35;105703;1262;61267;-81
2023/08/29 10:12:40;;;;;;;27.60;11.90;;;;;;;42.79;26.22;98737.58;105686;1262;64041;-77
2023/08/29 10:15:08;;;;;;;12.40;9.80;;;;;;;42.83;26.44;98739.42;105687;1258;62299;-74
2023/08/29 10:23:08;;;;;;;15.50;10.20;;;;;;;42.84;26.66;98738.62;105713;1257;67379;-74
2023/08/29 10:25:35;;;;;;;18.00;10.20;;;;;;;42.82;26.29;98740.13;105683;1257;62358;-74
2023/08/29 10:28:02;;;;;;;20.00;11.50;;;;;;;42.81;26.08;98738.92;105728;1257;63722;-75
2023/08/29 10:30:30;;;;;;;30.50;12.80;;;;;;;42.90;25.60;98739.96;105648;1258;61245;-74
2023/08/29 10:32:57;;;;;;;18.60;10.90;;;;;;;42.95;25.57;98738.48;105319;1260;61247;-77
2023/08/29 10:35:24;;;;;;;15.10;9.90;;;;;;;43.12;25.55;98745.66;105375;1262;65804;-72
2023/08/29 10:37:53;;;;;;;15.00;9.20;;;;;;;43.25;24.97;98748.48;105357;1264;61576;-73
2023/08/29 10:40:24;;;;;;;14.50;9.10;;;;;;;43.03;25.18;98749.41;105248;1261;63857;-74
2023/08/29 10:42:53;;;;;;;29.40;12.00;;;;;;;42.97;25.60;98754.46;105330;1260;61346;-74
2023/08/29 10:45:42;;;;;;;11.80;9.50;;;;;;;42.95;25.54;98752.86;105407;1261;61160;-75
2023/08/29 10:48:15;;;;;;;13.30;9.40;;;;;;;43.36;24.86;98750.63;105370;1265;64558;-75
2023/08/29 10:51:03;;;;;;;12.30;9.40;;;;;;;43.88;24.31;98751.48;105341;1260;61372;-75
2023/08/29 10:53:31;;;;;;;14.00;8.50;;;;;;;43.79;24.17;98745.03;105332;1261;63823;-73
2023/08/29 10:56:03;;;;;;;13.10;9.00;;;;;;;43.08;24.71;98742.06;105314;1260;62450;-75
2023/08/29 10:58:40;;;;;;;18.40;8.40;;;;;;;43.09;25.08;98739.98;105302;1261;61522;-74
2023/08/29 11:01:28;;;;;;;13.80;8.50;;;;;;;43.14;24.56;98742.23;105283;1265;65783;-74
2023/08/29 11:03:55;;;;;;;15.70;8.70;;;;;;;42.86;24.12;98743.14;105415;1257;61358;-72
2023/08/29 11:06:26;;;;;;;17.20;9.90;;;;;;;42.81;24.19;98744.11;105719;1262;63738;-75
2023/08/29 11:09:16;;;;;;;19.10;11.60;;;;;;;42.44;24.14;98737.66;105727;1257;61263;-75
2023/08/29 11:11:43;;;;;;;14.70;8.30;;;;;;;42.38;24.46;98734.77;105703;1257;61359;-76
2023/08/29 11:14:10;;;;;;;18.40;8.70;;;;;;;42.60;24.42;98734.36;105751;1262;65917;-75
2023/08/29 11:16:37;;;;;;;;;;;;;;;42.86;24.01;98731.14;105626;1265;61360;-74
2023/08/29 11:19:12;;;;;;;20.70;9.00;;;;;;;43.22;23.87;98736.27;105455;1263;62565;-73
2023/08/29 11:21:40;;;;;;;18.30;8.90;;;;;;;43.14;23.34;98741.37;105421;1267;61437;-74